Latest Coastal Weather Observations for Yamba

IDN60701

Issued at 12:45 pm EDT Sunday 26 October 2014 (issued every 10 minutes, with the page automatically refreshed every 10 minutes)

About coastal observations | Map of coastal stations | Coastal observations for NSW | Marine services | Other Formats
Station Details ID: 058012 Name: YAMBA PILOT STATION Lat: -29.43 Lon: 153.36 Height: 27.4 m
Data from the previous 72 hours. | See also: Recent months at Yamba
Date/Time
EDT
Temp

°C
Wind Pressure Rain
since 9am
mm
Weather Cloud Vis
km
Sea
Height
m
Swell
Dir
 
Speed
knots
Gust
knots
hPa Trend Height
m
Period
s
Dir
26/12:30pm 26.9 N 8 12 1012.5 - 0.0 - - - - - - -
26/12:00pm 27.2 N 7 10 1013.1 - 0.0 - - - - - - -
26/11:30am 26.7 N 6 10 1013.8 - 0.0 - - - - - - -
26/11:00am 26.2 N 5 10 1014.1 - 0.0 - - - - - - -
26/10:30am 25.9 N 6 8 1014.6 - 0.0 - - - - - - -
26/10:00am 25.0 N 5 7 1014.9 - 0.0 - - - - - - -
26/09:30am 23.7 N 4 6 1015.2 - 0.0 - - - - - - -
26/09:00am 22.9 N 4 6 1014.9 F 0.0 Fine Mostly clear 30 1 1.0 8 NE
26/08:30am 22.2 N 4 7 1015.1 - 0.0 - - - - - - -
26/08:00am 20.7 N 4 6 1015.0 - 0.0 - - - - - - -
26/07:30am 19.3 NNW 3 4 1015.2 - 0.0 - - - - - - -
26/07:00am 18.8 N 3 4 1015.0 - 0.0 - - - - - - -
26/06:30am 18.0 NNW 4 5 1014.7 - 0.0 - - - - - - -
26/06:00am 17.7 NNW 5 6 1014.0 - 0.0 - - - - - - -
26/05:30am 17.7 NNW 3 4 1014.1 - 0.0 - - - - - - -
26/05:00am 17.7 N 3 4 1014.0 - 0.0 - - - - - - -
26/04:30am 18.4 NNW 5 6 1013.7 - 0.0 - - - - - - -
26/04:00am 18.5 WNW 6 8 1013.8 - 0.0 - - - - - - -
26/03:30am 18.8 NW 5 7 1014.1 - 0.0 - - - - - - -
26/03:00am 19.3 NW 5 7 1014.1 - 0.0 - - - - - - -
26/02:30am 19.2 N 4 5 1014.5 - 0.0 - - - - - - -
26/02:00am 19.3 ESE 4 5 1014.9 - 0.0 - - - - - - -
26/01:30am 19.9 ESE 3 6 1015.0 - 0.0 - - - - - - -
26/01:00am 20.3 SSE 3 4 1015.4 - 0.0 - - - - - - -
26/12:30am 20.3 SSE 4 4 1015.9 - 0.0 - - - - - - -
26/12:00am 20.0 SSE 3 4 1015.9 - 0.0 - - - - - - -
 
Date/Time
EDT
Temp

°C
Wind Pressure Rain
since 9am
mm
Weather Cloud Vis
km
Sea
Height
m
Swell
Dir
 
Speed
knots
Gust
knots
hPa Trend Height
m
Period
s
Dir
25/11:30pm 20.1 SSE 5 6 1016.2 - 0.0 - - - - - - -
25/11:00pm 20.1 CALM 0 0 1015.9 - 0.0 - - - - - - -
25/10:30pm 20.1 CALM 0 0 1015.9 - 0.0 - - - - - - -
25/10:00pm 20.3 N 1 4 1015.8 - 0.0 - - - - - - -
25/09:30pm 20.1 NNW 2 4 1015.5 - 0.0 - - - - - - -
25/09:00pm 20.2 NNW 3 5 1015.2 - 0.0 - - - - - - -
25/08:30pm 20.4 N 5 7 1015.1 - 0.0 - - - - - - -
25/08:00pm 21.1 N 5 8 1014.8 - 0.0 - - - - - - -
25/07:30pm 21.2 N 6 9 1014.5 - 0.0 - - - - - - -
25/07:00pm 21.6 N 7 12 1014.0 - 0.0 - - - - - - -
25/06:30pm 22.1 N 7 13 1013.8 - 0.0 - - - - - - -
25/06:00pm 22.5 N 6 11 1013.6 - 0.0 - - - - - - -
25/05:30pm 22.8 N 7 11 1013.5 - 0.0 - - - - - - -
25/05:00pm 23.2 N 10 17 1013.2 - 0.0 - - - - - - -
25/04:30pm 23.9 N 11 17 1012.9 - 0.0 - - - - - - -
25/04:00pm 24.5 NNE 10 17 1012.7 - 0.0 - - - - - - -
25/03:30pm 25.3 NNE 11 17 1012.9 - 0.0 - - - - - - -
25/03:00pm 25.4 NNE 10 16 1012.9 F 0.0 Fine Mostly clear 35 2 1.5 10 NE
25/02:30pm 25.4 N 10 17 1013.2 - 0.0 - - - - - - -
25/02:00pm 26.2 N 9 16 1013.3 - 0.0 - - - - - - -
25/01:30pm 26.1 N 11 17 1014.0 - 0.0 - - - - - - -
25/01:00pm 26.1 N 8 14 1014.7 - 0.0 - - - - - - -
25/12:30pm 26.0 N 7 11 1015.2 - 0.0 - - - - - - -
25/12:00pm 26.4 N 9 16 1015.6 - 0.0 - - - - - - -
25/11:30am 26.0 N 8 13 1016.3 - 0.0 - - - - - - -
25/11:00am 25.4 N 7 11 1016.7 - 0.0 - - - - - - -
25/10:30am 25.2 N 5 9 1017.1 - 0.0 - - - - - - -
25/10:00am 24.7 N 5 8 1017.4 - 0.0 - - - - - - -
25/09:30am 23.8 N 4 8 1017.8 - 0.0 - - - - - - -
25/09:00am 22.7 N 5 10 1017.9 F 0.0 Fine Mostly clear 35 1 1.0 8 NE
25/08:30am 21.7 N 5 8 1018.2 - 0.0 - - - - - - -
25/08:00am 21.4 N 4 7 1018.3 - 0.0 - - - - - - -
25/07:30am 20.9 N 4 7 1018.3 - 0.0 - - - - - - -
25/07:00am 19.8 N 5 9 1018.2 - 0.0 - - - - - - -
25/06:30am 19.1 N 5 9 1018.2 - 0.0 - - - - - - -
25/06:00am 18.4 N 7 10 1017.4 - 0.0 - - - - - - -
25/05:30am 18.2 N 7 10 1017.3 - 0.0 - - - - - - -
25/05:00am 18.4 N 8 11 1017.1 - 0.0 - - - - - - -
25/04:30am 18.3 N 7 10 1016.8 - 0.0 - - - - - - -
25/04:00am 17.9 N 6 9 1016.8 - 0.0 - - - - - - -
25/03:30am 17.8 N 6 8 1017.1 - 0.0 - - - - - - -
25/03:00am 18.3 NNW 5 8 1017.2 - 0.0 - - - - - - -
25/02:30am 18.8 NNW 6 9 1017.8 - 0.0 - - - - - - -
25/02:00am 18.9 N 7 10 1018.1 - 0.0 - - - - - - -
25/01:30am 19.0 N 7 12 1018.3 - 0.0 - - - - - - -
25/01:00am 19.4 N 7 12 1018.6 - 0.0 - - - - - - -
25/12:30am 19.7 N 9 13 1019.1 - 0.0 - - - - - - -
25/12:00am 20.0 N 8 16 1019.1 - 0.0 - - - - - - -
 
Date/Time
EDT
Temp

°C
Wind Pressure Rain
since 9am
mm
Weather Cloud Vis
km
Sea
Height
m
Swell
Dir
 
Speed
knots
Gust
knots
hPa Trend Height
m
Period
s
Dir
24/11:30pm 20.0 N 7 14 1019.7 - 0.0 - - - - - - -
24/11:00pm 20.3 N 8 13 1020.2 - 0.0 - - - - - - -
24/10:30pm 20.4 N 7 14 1020.5 - 0.0 - - - - - - -
24/10:00pm 20.4 N 8 15 1020.5 - 0.0 - - - - - - -
24/09:30pm 20.5 N 8 15 1020.4 - 0.0 - - - - - - -
24/09:00pm 20.5 NNW 7 15 1020.3 - 0.0 - - - - - - -
24/08:30pm 20.6 N 10 18 1020.1 - 0.0 - - - - - - -
24/08:00pm 20.6 NNE 10 15 1019.6 - 0.0 - - - - - - -
24/07:30pm 20.7 N 11 19 1019.5 - 0.0 - - - - - - -
24/07:00pm 20.8 N 10 16 1019.4 - 0.0 - - - - - - -
24/06:30pm 21.2 NNE 10 16 1019.4 - 0.0 - - - - - - -
24/06:00pm 21.7 NNE 11 18 1019.0 - 0.0 - - - - - - -
24/05:30pm 22.3 NNE 10 17 1019.0 - 0.0 - - - - - - -
24/05:00pm 22.5 NNE 9 16 1019.0 - 0.0 - - - - - - -
24/04:30pm 23.2 NNE 10 16 1018.9 - 0.0 - - - - - - -
24/04:00pm 23.2 NNE 10 17 1019.1 - 0.0 - - - - - - -
24/03:30pm 23.8 NNE 9 16 1019.4 - 0.0 - - - - - - -
24/03:00pm 23.9 NNE 9 15 1019.5 F 0.0 Fine Mostly clear 40 2 1.5 8 E
24/02:30pm 25.2 NNE 7 12 1019.9 - 0.0 - - - - - - -
24/02:00pm 25.4 NNE 8 14 1020.3 - 0.0 - - - - - - -
24/01:30pm 24.7 NNE 8 14 1020.7 - 0.0 - - - - - - -
24/01:00pm 24.9 NNE 8 13 1021.0 - 0.0 - - - - - - -
24/12:30pm 25.5 NNE 7 12 1021.2 - 0.0 - - - - - - -
24/12:00pm 25.0 NE 6 10 1021.4 - 0.0 - - - - - - -
24/11:30am 24.6 NE 6 10 1021.9 - 0.0 - - - - - - -
24/11:00am 24.4 NE 5 8 1022.1 - 0.0 - - - - - - -
24/10:30am 24.4 NE 5 7 1022.1 - 0.0 - - - - - - -
24/10:00am 24.2 NNE 5 7 1022.3 - 0.0 - - - - - - -
24/09:30am 23.4 N 3 6 1022.4 - 0.0 - - - - - - -
24/09:00am 22.5 NW 5 7 1022.4 R 0.0 Fine Mostly clear 35 1 1.0 10 SE
24/08:30am 21.4 NNW 4 6 1022.4 - 0.0 - - - - - - -
24/08:00am 19.6 NW 3 5 1022.1 - 0.0 - - - - - - -
24/07:30am 18.4 NNW 4 6 1022.0 - 0.0 - - - - - - -
24/07:00am 17.5 NNW 5 7 1021.7 - 0.0 - - - - - - -
24/06:30am 16.8 NNW 5 7 1021.4 - 0.0 - - - - - - -
24/06:00am 16.8 NNW 4 6 1020.8 - 0.0 - - - - - - -
24/05:30am 17.0 N 6 8 1020.5 - 0.0 - - - - - - -
24/05:00am 17.0 NNW 6 9 1020.3 - 0.0 - - - - - - -
24/04:30am 17.3 NNW 6 8 1020.1 - 0.0 - - - - - - -
24/04:00am 17.8 NNW 7 9 1019.9 - 0.0 - - - - - - -
24/03:30am 18.5 N 7 10 1020.0 - 0.0 - - - - - - -
24/03:00am 18.5 N 7 11 1019.9 - 0.0 - - - - - - -
24/02:30am 18.6 N 7 11 1019.9 - 0.0 - - - - - - -
24/02:00am 18.9 N 7 13 1020.1 - 0.0 - - - - - - -
24/01:30am 18.6 N 6 10 1020.3 - 0.0 - - - - - - -
24/01:00am 18.7 N 6 10 1020.7 - 0.0 - - - - - - -
24/12:30am 19.2 NNW 7 11 1021.0 - 0.0 - - - - - - -
24/12:00am 20.0 N 6 11 1020.7 - 0.0 - - - - - - -
 
Date/Time
EDT
Temp

°C
Wind Pressure Rain
since 9am
mm
Weather Cloud Vis
km
Sea
Height
m
Swell
Dir
 
Speed
knots
Gust
knots
hPa Trend Height
m
Period
s
Dir
23/11:30pm 20.0 N 7 14 1020.7 - 0.0 - - - - - - -
23/11:00pm 20.1 N 6 12 1020.7 - 0.0 - - - - - - -
23/10:30pm 20.1 N 6 9 1020.7 - 0.0 - - - - - - -
23/10:00pm 20.1 N 6 9 1020.4 - 0.0 - - - - - - -
23/09:30pm 20.1 N 6 10 1020.5 - 0.0 - - - - - - -
23/09:00pm 20.0 N 6 10 1019.9 - 0.0 - - - - - - -
23/08:30pm 20.1 N 6 11 1019.7 - 0.0 - - - - - - -
23/08:00pm 20.2 N 6 9 1019.5 - 0.0 - - - - - - -
23/07:30pm 20.8 N 7 11 1019.2 - 0.0 - - - - - - -
23/07:00pm 21.0 N 6 13 1018.7 - 0.0 - - - - - - -
23/06:30pm 21.0 N 8 14 1018.5 - 0.0 - - - - - - -
23/06:00pm 21.3 N 8 14 1018.1 - 0.0 - - - - - - -
23/05:30pm 21.5 N 7 14 1018.0 - 0.0 - - - - - - -
23/05:00pm 21.9 NNE 9 14 1017.8 - 0.0 - - - - - - -
23/04:30pm 22.5 N 9 14 1017.4 - 0.0 - - - - - - -
23/04:00pm 22.9 NNE 9 16 1017.0 - 0.0 - - - - - - -
23/03:30pm 23.5 NNE 9 15 1017.0 - 0.0 - - - - - - -
23/03:00pm 23.8 N 8 13 1017.0 F 0.0 Fine Mostly clear 40 2 1.5 9 SE
23/02:30pm 23.8 NNE 10 16 1017.4 - 0.0 - - - - - - -
23/02:00pm 24.9 NNE 8 14 1017.9 - 0.0 - - - - - - -
23/01:30pm 24.9 NNE 9 14 1018.4 - 0.0 - - - - - - -
23/01:00pm 24.4 NNE 9 15 1018.8 - 0.0 - - - - - - -

Other Formats:

Comma delimited format used in spreadsheet applications
http://www.bom.gov.au/fwo/IDN60701/IDN60701.94589.axf

JavaScript Object Notation format (JSON) in row-major order
http://www.bom.gov.au/fwo/IDN60701/IDN60701.94589.json